N420HE PABR-CYZF
Flight info
| Callsign | N420HE |
|---|---|
| Flight time | N/A |
| Altitude | 41000 |
| Route | BRW VOLOB YZF |
| Aircraft | HDJT/L-SABDGRWY/H |
Departure
| Time | 2026-04-21 22:47 |
|---|---|
| Airport | Wiley Post Will Rogers Memorial Airport (PABR) |
Arrival
| Time | N/A |
|---|---|
| Airport | Yellowknife International Airport (CYZF) |
| Time | Latitude | Longitude | Altitude | Speed | Heading |
|---|---|---|---|---|---|
| 2026-04-21 22:36 | 71.28728 | -156.78222 | 43 ft | 0 kts | 34° |
| 2026-04-21 22:44 | 71.28730 | -156.78207 | 34 ft | 2 kts | 88° |
| 2026-04-21 22:44 | 71.28727 | -156.78185 | 43 ft | 0 kts | 141° |
| 2026-04-21 22:44 | 71.28710 | -156.78186 | 44 ft | 6 kts | 202° |
| 2026-04-21 22:45 | 71.28688 | -156.78328 | 46 ft | 9 kts | 263° |
| 2026-04-21 22:45 | 71.28679 | -156.78578 | 48 ft | 11 kts | 258° |
| 2026-04-21 22:45 | 71.28655 | -156.78870 | 51 ft | 15 kts | 255° |
| 2026-04-21 22:45 | 71.28628 | -156.79183 | 56 ft | 14 kts | 255° |
| 2026-04-21 22:46 | 71.28601 | -156.79344 | 57 ft | 5 kts | 201° |
| 2026-04-21 22:46 | 71.28562 | -156.79343 | 58 ft | 5 kts | 165° |
| 2026-04-21 22:46 | 71.28547 | -156.79291 | 58 ft | 0 kts | 89° |
| 2026-04-21 22:47 | 71.28547 | -156.78881 | 55 ft | 62 kts | 90° |
| 2026-04-21 22:47 | 71.28548 | -156.76548 | 45 ft | 149 kts | 90° |
| 2026-04-21 22:47 | 71.28537 | -156.73351 | 662 ft | 153 kts | 89° |
| 2026-04-21 22:48 | 71.28550 | -156.69845 | 1355 ft | 171 kts | 88° |
| 2026-04-21 22:48 | 71.28582 | -156.65884 | 1901 ft | 193 kts | 89° |
| 2026-04-21 22:48 | 71.28536 | -156.61540 | 2576 ft | 210 kts | 91° |
| 2026-04-21 22:48 | 71.28451 | -156.57008 | 3613 ft | 206 kts | 93° |
| 2026-04-21 22:49 | 71.28383 | -156.52616 | 4752 ft | 202 kts | 88° |
| 2026-04-21 22:49 | 71.28404 | -156.48203 | 5693 ft | 205 kts | 88° |
| 2026-04-21 22:49 | 71.28383 | -156.43729 | 6654 ft | 208 kts | 90° |
| 2026-04-21 22:49 | 71.28339 | -156.39206 | 7555 ft | 210 kts | 90° |
| 2026-04-21 22:50 | 71.28297 | -156.34637 | 8476 ft | 213 kts | 90° |
| 2026-04-21 22:50 | 71.28255 | -156.30006 | 9415 ft | 215 kts | 91° |
| 2026-04-21 22:50 | 71.28213 | -156.25325 | 10337 ft | 218 kts | 91° |
| 2026-04-21 22:50 | 71.28169 | -156.20581 | 11203 ft | 220 kts | 91° |
| 2026-04-21 22:51 | 71.28123 | -156.15785 | 12081 ft | 223 kts | 91° |
| 2026-04-21 22:51 | 71.28076 | -156.10937 | 12970 ft | 226 kts | 91° |
| 2026-04-21 22:51 | 71.28026 | -156.06087 | 13862 ft | 228 kts | 91° |
| 2026-04-21 22:51 | 71.27975 | -156.01114 | 14686 ft | 231 kts | 91° |
| 2026-04-21 22:52 | 71.27922 | -155.96097 | 15509 ft | 233 kts | 91° |
| 2026-04-21 22:52 | 71.27867 | -155.91028 | 16328 ft | 236 kts | 91° |
| 2026-04-21 22:52 | 71.27809 | -155.85903 | 17149 ft | 238 kts | 91° |
| 2026-04-21 22:52 | 71.27751 | -155.80734 | 17975 ft | 240 kts | 91° |
| 2026-04-21 22:53 | 71.27689 | -155.75503 | 18748 ft | 243 kts | 91° |
| 2026-04-21 22:53 | 71.27626 | -155.70211 | 19434 ft | 246 kts | 92° |
| 2026-04-21 22:53 | 71.27560 | -155.64858 | 20123 ft | 249 kts | 92° |
| 2026-04-21 22:53 | 71.27493 | -155.59449 | 20810 ft | 252 kts | 92° |
| 2026-04-21 22:54 | 71.27422 | -155.53961 | 21495 ft | 255 kts | 92° |
| 2026-04-21 22:54 | 71.27350 | -155.48419 | 22186 ft | 258 kts | 92° |
| 2026-04-21 22:54 | 71.27274 | -155.42818 | 22869 ft | 261 kts | 92° |
| 2026-04-21 22:54 | 71.27197 | -155.37142 | 23552 ft | 264 kts | 92° |
| 2026-04-21 22:55 | 71.27116 | -155.31394 | 24133 ft | 268 kts | 92° |
| 2026-04-21 22:55 | 71.27032 | -155.25559 | 24619 ft | 272 kts | 92° |
| 2026-04-21 22:55 | 71.26945 | -155.19628 | 25103 ft | 277 kts | 92° |
| 2026-04-21 22:55 | 71.26855 | -155.13602 | 25576 ft | 281 kts | 92° |
| 2026-04-21 22:56 | 71.26762 | -155.07488 | 26044 ft | 285 kts | 92° |
| 2026-04-21 22:56 | 71.26665 | -155.01273 | 26499 ft | 290 kts | 92° |
| 2026-04-21 22:56 | 71.26564 | -154.94968 | 26945 ft | 294 kts | 92° |
| 2026-04-21 22:56 | 71.26461 | -154.88578 | 27382 ft | 298 kts | 92° |
| 2026-04-21 22:57 | 71.26353 | -154.82101 | 27806 ft | 302 kts | 92° |
| 2026-04-21 22:57 | 71.26241 | -154.75527 | 28221 ft | 306 kts | 93° |
| 2026-04-21 22:57 | 71.26126 | -154.68880 | 28624 ft | 310 kts | 93° |
| 2026-04-21 22:57 | 71.26007 | -154.62176 | 29094 ft | 311 kts | 93° |
| 2026-04-21 22:58 | 71.25886 | -154.55429 | 29478 ft | 315 kts | 93° |
| 2026-04-21 22:58 | 71.25759 | -154.48587 | 29857 ft | 319 kts | 93° |
| 2026-04-21 22:58 | 71.25630 | -154.41670 | 30228 ft | 322 kts | 93° |
| 2026-04-21 22:58 | 71.25495 | -154.34668 | 30504 ft | 327 kts | 93° |
| 2026-04-21 22:59 | 71.25357 | -154.27589 | 30811 ft | 329 kts | 94° |
| 2026-04-21 22:59 | 71.25216 | -154.20492 | 31158 ft | 330 kts | 94° |
| 2026-04-21 22:59 | 71.25071 | -154.13370 | 31505 ft | 330 kts | 94° |
| 2026-04-21 22:59 | 71.24924 | -154.06247 | 31856 ft | 330 kts | 94° |
| 2026-04-21 23:00 | 71.24773 | -153.99098 | 32168 ft | 332 kts | 94° |
| 2026-04-21 23:00 | 71.24619 | -153.91926 | 32484 ft | 333 kts | 94° |
| 2026-04-21 23:00 | 71.24462 | -153.84724 | 32801 ft | 334 kts | 94° |
| 2026-04-21 23:00 | 71.24302 | -153.77516 | 33114 ft | 335 kts | 94° |
| 2026-04-21 23:01 | 71.24141 | -153.70363 | 33424 ft | 336 kts | 94° |
| 2026-04-21 23:01 | 71.23974 | -153.63110 | 33735 ft | 337 kts | 94° |
| 2026-04-21 23:01 | 71.23804 | -153.55835 | 34038 ft | 338 kts | 94° |
| 2026-04-21 23:01 | 71.23631 | -153.48536 | 34307 ft | 340 kts | 94° |
| 2026-04-21 23:02 | 71.23453 | -153.41208 | 34564 ft | 340 kts | 94° |
| 2026-04-21 23:02 | 71.23273 | -153.33889 | 34837 ft | 340 kts | 94° |
| 2026-04-21 23:02 | 71.23091 | -153.26556 | 35072 ft | 341 kts | 94° |
| 2026-04-21 23:02 | 71.22905 | -153.19207 | 35310 ft | 341 kts | 94° |
| 2026-04-21 23:03 | 71.22715 | -153.11866 | 35561 ft | 342 kts | 94° |
| 2026-04-21 23:03 | 71.22523 | -153.04510 | 35802 ft | 342 kts | 95° |
| 2026-04-21 23:03 | 71.22328 | -152.97148 | 36042 ft | 342 kts | 95° |
| 2026-04-21 23:03 | 71.22130 | -152.89775 | 36276 ft | 343 kts | 95° |
| 2026-04-21 23:04 | 71.21928 | -152.82405 | 36511 ft | 343 kts | 95° |
| 2026-04-21 23:04 | 71.21724 | -152.75035 | 36742 ft | 343 kts | 95° |
| 2026-04-21 23:04 | 71.21519 | -152.67766 | 36967 ft | 344 kts | 95° |
| 2026-04-21 23:04 | 71.21305 | -152.60228 | 37211 ft | 344 kts | 95° |
| 2026-04-21 23:05 | 71.21091 | -152.52838 | 37428 ft | 345 kts | 95° |
| 2026-04-21 23:05 | 71.20874 | -152.45435 | 37646 ft | 345 kts | 95° |
| 2026-04-21 23:05 | 71.20653 | -152.38015 | 37866 ft | 345 kts | 95° |
| 2026-04-21 23:05 | 71.20430 | -152.30609 | 38084 ft | 345 kts | 95° |
| 2026-04-21 23:06 | 71.20204 | -152.23193 | 38294 ft | 346 kts | 95° |
| 2026-04-21 23:06 | 71.19974 | -152.15758 | 38504 ft | 346 kts | 95° |
| 2026-04-21 23:06 | 71.19741 | -152.08326 | 38723 ft | 347 kts | 95° |
| 2026-04-21 23:06 | 71.19505 | -152.00887 | 38912 ft | 347 kts | 95° |
| 2026-04-21 23:07 | 71.19266 | -151.93455 | 39066 ft | 347 kts | 96° |
| 2026-04-21 23:07 | 71.19023 | -151.85999 | 39218 ft | 348 kts | 96° |
| 2026-04-21 23:07 | 71.18777 | -151.78541 | 39376 ft | 348 kts | 96° |
| 2026-04-21 23:07 | 71.18528 | -151.71079 | 39532 ft | 348 kts | 96° |
| 2026-04-21 23:08 | 71.18277 | -151.63636 | 39719 ft | 348 kts | 96° |
| 2026-04-21 23:08 | 71.18023 | -151.56188 | 39880 ft | 348 kts | 96° |
| 2026-04-21 23:08 | 71.17766 | -151.48767 | 40030 ft | 348 kts | 96° |
| 2026-04-21 23:08 | 71.17505 | -151.41294 | 40181 ft | 348 kts | 96° |
| 2026-04-21 23:09 | 71.17242 | -151.33848 | 40331 ft | 348 kts | 96° |
| 2026-04-21 23:09 | 71.16975 | -151.26405 | 40478 ft | 348 kts | 96° |
| 2026-04-21 23:09 | 71.16706 | -151.18960 | 40619 ft | 348 kts | 96° |
| 2026-04-21 23:09 | 71.16437 | -151.11611 | 40758 ft | 348 kts | 96° |
| 2026-04-21 23:10 | 71.16158 | -151.04071 | 40897 ft | 349 kts | 96° |
| 2026-04-21 23:10 | 71.15879 | -150.96615 | 41034 ft | 349 kts | 96° |
| 2026-04-21 23:10 | 71.15597 | -150.89173 | 41170 ft | 349 kts | 96° |
| 2026-04-21 23:10 | 71.15311 | -150.81702 | 41228 ft | 352 kts | 96° |
| 2026-04-21 23:11 | 71.14721 | -150.66486 | 41229 ft | 361 kts | 96° |
| 2026-04-21 23:11 | 71.14106 | -150.51002 | 41227 ft | 369 kts | 97° |
| 2026-04-21 23:12 | 71.13460 | -150.35088 | 41224 ft | 377 kts | 97° |
| 2026-04-21 23:12 | 71.12790 | -150.18906 | 41225 ft | 383 kts | 97° |
| 2026-04-21 23:13 | 71.12094 | -150.02484 | 41226 ft | 388 kts | 97° |
| 2026-04-21 23:13 | 71.11375 | -149.85870 | 41227 ft | 393 kts | 97° |
| 2026-04-21 23:14 | 71.10634 | -149.69093 | 41229 ft | 396 kts | 97° |
| 2026-04-21 23:14 | 71.09871 | -149.52186 | 41222 ft | 400 kts | 97° |
| 2026-04-21 23:15 | 71.09086 | -149.35149 | 41225 ft | 403 kts | 98° |
| 2026-04-21 23:15 | 71.08282 | -149.18035 | 41226 ft | 405 kts | 98° |
| 2026-04-21 23:16 | 71.07457 | -149.00841 | 41227 ft | 407 kts | 98° |
| 2026-04-21 23:16 | 71.06612 | -148.83581 | 41228 ft | 408 kts | 98° |
| 2026-04-21 23:17 | 71.05747 | -148.66260 | 41231 ft | 410 kts | 98° |
| 2026-04-21 23:17 | 71.04865 | -148.48914 | 41229 ft | 411 kts | 98° |
| 2026-04-21 23:18 | 71.03964 | -148.31547 | 41226 ft | 412 kts | 99° |
| 2026-04-21 23:18 | 71.03045 | -148.14151 | 41223 ft | 413 kts | 99° |
| 2026-04-21 23:19 | 71.02108 | -147.96747 | 41225 ft | 413 kts | 99° |
| 2026-04-21 23:19 | 71.01152 | -147.79310 | 41225 ft | 414 kts | 99° |
| 2026-04-21 23:20 | 71.00180 | -147.61892 | 41223 ft | 414 kts | 99° |
| 2026-04-21 23:20 | 70.99190 | -147.44461 | 41221 ft | 415 kts | 99° |
| 2026-04-21 23:21 | 70.98183 | -147.27028 | 41221 ft | 415 kts | 100° |
| 2026-04-21 23:21 | 70.97166 | -147.09720 | 41219 ft | 416 kts | 100° |
| 2026-04-21 23:22 | 70.96123 | -146.92288 | 41217 ft | 416 kts | 100° |
| 2026-04-21 23:22 | 70.95065 | -146.74869 | 41217 ft | 416 kts | 100° |
| 2026-04-21 23:23 | 70.93988 | -146.57445 | 41215 ft | 417 kts | 101° |
| 2026-04-21 23:23 | 70.92895 | -146.40039 | 41215 ft | 417 kts | 101° |
| 2026-04-21 23:24 | 70.91785 | -146.22638 | 41213 ft | 417 kts | 101° |
| 2026-04-21 23:24 | 70.90849 | -146.08183 | 41213 ft | 417 kts | 101° |
| 2026-04-21 23:25 | 70.89708 | -145.90796 | 41214 ft | 418 kts | 101° |
| 2026-04-21 23:25 | 70.88548 | -145.73409 | 41216 ft | 418 kts | 101° |
| 2026-04-21 23:26 | 70.87374 | -145.56044 | 41220 ft | 418 kts | 101° |
| 2026-04-21 23:26 | 70.86182 | -145.38702 | 41219 ft | 418 kts | 102° |
| 2026-04-21 23:27 | 70.84973 | -145.21368 | 41211 ft | 418 kts | 102° |
| 2026-04-21 23:27 | 70.83748 | -145.04046 | 41211 ft | 418 kts | 102° |
| 2026-04-21 23:28 | 70.82507 | -144.86753 | 41211 ft | 418 kts | 102° |
| 2026-04-21 23:28 | 70.81249 | -144.69476 | 41204 ft | 419 kts | 102° |
| 2026-04-21 23:29 | 70.79974 | -144.52204 | 41204 ft | 419 kts | 102° |